sensor_id;sensor_type;location;lat;lon;timestamp;P1;durP1;ratioP1;P2;durP2;ratioP2
46701;SDS011;33449;50.712;7.124;2023-04-29T00:00:52;12.48;;;7.53;;
46701;SDS011;33449;50.712;7.124;2023-04-29T00:03:20;11.40;;;6.93;;
46701;SDS011;33449;50.712;7.124;2023-04-29T00:05:47;13.10;;;8.02;;
46701;SDS011;33449;50.712;7.124;2023-04-29T00:08:15;14.75;;;7.70;;
46701;SDS011;33449;50.712;7.124;2023-04-29T00:10:56;11.73;;;7.70;;
46701;SDS011;33449;50.712;7.124;2023-04-29T00:13:23;16.35;;;7.75;;
46701;SDS011;33449;50.712;7.124;2023-04-29T00:15:51;14.13;;;8.52;;
46701;SDS011;33449;50.712;7.124;2023-04-29T00:18:18;11.13;;;7.47;;
46701;SDS011;33449;50.712;7.124;2023-04-29T00:20:45;13.15;;;8.63;;
46701;SDS011;33449;50.712;7.124;2023-04-29T00:23:12;16.50;;;8.98;;
46701;SDS011;33449;50.712;7.124;2023-04-29T00:25:42;13.10;;;8.18;;
46701;SDS011;33449;50.712;7.124;2023-04-29T00:28:09;16.55;;;10.50;;
46701;SDS011;33449;50.712;7.124;2023-04-29T00:30:39;17.23;;;10.00;;
46701;SDS011;33449;50.712;7.124;2023-04-29T00:33:08;18.50;;;11.25;;
46701;SDS011;33449;50.712;7.124;2023-04-29T00:35:35;21.38;;;10.70;;
46701;SDS011;33449;50.712;7.124;2023-04-29T00:38:02;19.50;;;11.02;;
46701;SDS011;33449;50.712;7.124;2023-04-29T00:40:29;19.55;;;11.15;;
46701;SDS011;33449;50.712;7.124;2023-04-29T00:42:56;18.95;;;11.27;;
46701;SDS011;33449;50.712;7.124;2023-04-29T00:45:25;19.17;;;10.77;;
46701;SDS011;33449;50.712;7.124;2023-04-29T00:47:55;17.63;;;11.50;;
46701;SDS011;33449;50.712;7.124;2023-04-29T00:50:22;19.33;;;11.38;;
46701;SDS011;33449;50.712;7.124;2023-04-29T00:52:49;20.90;;;12.10;;
46701;SDS011;33449;50.712;7.124;2023-04-29T00:55:17;20.95;;;11.15;;
46701;SDS011;33449;50.712;7.124;2023-04-29T00:57:45;24.98;;;12.88;;
46701;SDS011;33449;50.712;7.124;2023-04-29T01:00:17;20.65;;;12.38;;
46701;SDS011;33449;50.712;7.124;2023-04-29T01:02:45;22.55;;;12.13;;
46701;SDS011;33449;50.712;7.124;2023-04-29T01:05:13;20.65;;;11.40;;
46701;SDS011;33449;50.712;7.124;2023-04-29T01:07:47;19.42;;;11.00;;
46701;SDS011;33449;50.712;7.124;2023-04-29T01:10:19;22.92;;;11.10;;
46701;SDS011;33449;50.712;7.124;2023-04-29T01:12:49;19.42;;;11.68;;
46701;SDS011;33449;50.712;7.124;2023-04-29T01:15:21;21.50;;;12.65;;
46701;SDS011;33449;50.712;7.124;2023-04-29T01:17:55;23.35;;;12.45;;
46701;SDS011;33449;50.712;7.124;2023-04-29T01:20:25;23.45;;;12.05;;
46701;SDS011;33449;50.712;7.124;2023-04-29T01:22:53;20.95;;;11.73;;
46701;SDS011;33449;50.712;7.124;2023-04-29T01:25:20;21.40;;;12.48;;
46701;SDS011;33449;50.712;7.124;2023-04-29T01:30:18;20.35;;;11.45;;
46701;SDS011;33449;50.712;7.124;2023-04-29T01:33:13;22.02;;;11.25;;
46701;SDS011;33449;50.712;7.124;2023-04-29T01:38:35;19.38;;;10.25;;
46701;SDS011;33449;50.712;7.124;2023-04-29T01:41:18;17.85;;;9.20;;
46701;SDS011;33449;50.712;7.124;2023-04-29T01:43:53;19.20;;;10.63;;
46701;SDS011;33449;50.712;7.124;2023-04-29T01:46:28;17.48;;;9.98;;
46701;SDS011;33449;50.712;7.124;2023-04-29T01:48:55;19.98;;;11.30;;
46701;SDS011;33449;50.712;7.124;2023-04-29T01:51:22;20.20;;;10.40;;
46701;SDS011;33449;50.712;7.124;2023-04-29T01:53:50;19.02;;;10.05;;
46701;SDS011;33449;50.712;7.124;2023-04-29T01:56:17;17.90;;;9.68;;
46701;SDS011;33449;50.712;7.124;2023-04-29T01:58:44;16.33;;;9.95;;
46701;SDS011;33449;50.712;7.124;2023-04-29T02:01:11;18.15;;;10.50;;
46701;SDS011;33449;50.712;7.124;2023-04-29T02:03:39;18.23;;;8.98;;
46701;SDS011;33449;50.712;7.124;2023-04-29T02:06:07;16.98;;;8.93;;
46701;SDS011;33449;50.712;7.124;2023-04-29T02:08:34;13.05;;;8.20;;
46701;SDS011;33449;50.712;7.124;2023-04-29T02:11:01;15.57;;;8.40;;
46701;SDS011;33449;50.712;7.124;2023-04-29T02:13:29;18.75;;;9.27;;
46701;SDS011;33449;50.712;7.124;2023-04-29T02:16:06;14.63;;;8.38;;
46701;SDS011;33449;50.712;7.124;2023-04-29T02:18:36;17.77;;;8.82;;
46701;SDS011;33449;50.712;7.124;2023-04-29T02:21:03;17.38;;;9.75;;
46701;SDS011;33449;50.712;7.124;2023-04-29T02:23:31;18.58;;;10.93;;
46701;SDS011;33449;50.712;7.124;2023-04-29T02:26:04;23.88;;;9.68;;
46701;SDS011;33449;50.712;7.124;2023-04-29T02:28:37;23.83;;;10.75;;
46701;SDS011;33449;50.712;7.124;2023-04-29T02:31:04;20.05;;;11.00;;
46701;SDS011;33449;50.712;7.124;2023-04-29T02:33:32;25.50;;;12.48;;
46701;SDS011;33449;50.712;7.124;2023-04-29T02:35:59;25.90;;;13.68;;
46701;SDS011;33449;50.712;7.124;2023-04-29T02:38:26;27.75;;;15.25;;
46701;SDS011;33449;50.712;7.124;2023-04-29T02:40:54;28.25;;;14.82;;
46701;SDS011;33449;50.712;7.124;2023-04-29T02:43:21;28.42;;;15.00;;
46701;SDS011;33449;50.712;7.124;2023-04-29T02:45:48;30.98;;;17.02;;
46701;SDS011;33449;50.712;7.124;2023-04-29T02:48:15;34.28;;;18.38;;
46701;SDS011;33449;50.712;7.124;2023-04-29T02:50:43;34.88;;;16.80;;
46701;SDS011;33449;50.712;7.124;2023-04-29T02:53:10;37.33;;;18.85;;
46701;SDS011;33449;50.712;7.124;2023-04-29T02:55:40;35.10;;;18.73;;
46701;SDS011;33449;50.712;7.124;2023-04-29T02:58:10;38.50;;;19.48;;
46701;SDS011;33449;50.712;7.124;2023-04-29T03:00:40;37.20;;;18.53;;
46701;SDS011;33449;50.712;7.124;2023-04-29T03:03:08;41.90;;;19.13;;
46701;SDS011;33449;50.712;7.124;2023-04-29T03:05:35;36.83;;;19.85;;
46701;SDS011;33449;50.712;7.124;2023-04-29T03:08:04;38.22;;;19.27;;
46701;SDS011;33449;50.712;7.124;2023-04-29T03:10:31;39.30;;;19.35;;
46701;SDS011;33449;50.712;7.124;2023-04-29T03:12:58;44.50;;;22.40;;
46701;SDS011;33449;50.712;7.124;2023-04-29T03:15:28;50.85;;;22.35;;
46701;SDS011;33449;50.712;7.124;2023-04-29T03:17:55;45.22;;;23.17;;
46701;SDS011;33449;50.712;7.124;2023-04-29T03:20:26;43.35;;;20.27;;
46701;SDS011;33449;50.712;7.124;2023-04-29T03:22:57;42.90;;;21.33;;
46701;SDS011;33449;50.712;7.124;2023-04-29T03:25:28;46.22;;;24.13;;
46701;SDS011;33449;50.712;7.124;2023-04-29T03:27:55;49.00;;;24.02;;
46701;SDS011;33449;50.712;7.124;2023-04-29T03:30:23;49.67;;;24.05;;
46701;SDS011;33449;50.712;7.124;2023-04-29T03:32:50;46.75;;;23.15;;
46701;SDS011;33449;50.712;7.124;2023-04-29T03:35:17;44.22;;;22.17;;
46701;SDS011;33449;50.712;7.124;2023-04-29T03:37:46;41.65;;;21.20;;
46701;SDS011;33449;50.712;7.124;2023-04-29T03:40:13;43.47;;;22.83;;
46701;SDS011;33449;50.712;7.124;2023-04-29T03:42:40;44.85;;;23.70;;
46701;SDS011;33449;50.712;7.124;2023-04-29T03:45:10;46.05;;;23.15;;
46701;SDS011;33449;50.712;7.124;2023-04-29T03:47:39;52.00;;;24.70;;
46701;SDS011;33449;50.712;7.124;2023-04-29T03:50:07;44.75;;;23.73;;
46701;SDS011;33449;50.712;7.124;2023-04-29T03:52:34;49.08;;;24.23;;
46701;SDS011;33449;50.712;7.124;2023-04-29T03:55:05;47.20;;;21.30;;
46701;SDS011;33449;50.712;7.124;2023-04-29T04:00:03;47.45;;;25.75;;
46701;SDS011;33449;50.712;7.124;2023-04-29T04:02:30;52.38;;;24.02;;
46701;SDS011;33449;50.712;7.124;2023-04-29T04:04:58;55.85;;;26.63;;
46701;SDS011;33449;50.712;7.124;2023-04-29T04:07:25;61.40;;;29.08;;
46701;SDS011;33449;50.712;7.124;2023-04-29T04:09:55;61.28;;;29.35;;
46701;SDS011;33449;50.712;7.124;2023-04-29T04:12:22;61.10;;;30.27;;
46701;SDS011;33449;50.712;7.124;2023-04-29T04:14:50;63.20;;;31.67;;
46701;SDS011;33449;50.712;7.124;2023-04-29T04:17:18;72.05;;;32.85;;
46701;SDS011;33449;50.712;7.124;2023-04-29T04:19:45;72.10;;;33.42;;
46701;SDS011;33449;50.712;7.124;2023-04-29T04:22:13;71.18;;;30.63;;
46701;SDS011;33449;50.712;7.124;2023-04-29T04:24:44;82.32;;;37.60;;
46701;SDS011;33449;50.712;7.124;2023-04-29T04:27:11;75.27;;;37.23;;
46701;SDS011;33449;50.712;7.124;2023-04-29T04:29:38;79.38;;;37.60;;
46701;SDS011;33449;50.712;7.124;2023-04-29T04:32:06;85.82;;;39.85;;
46701;SDS011;33449;50.712;7.124;2023-04-29T04:34:35;85.90;;;39.92;;
46701;SDS011;33449;50.712;7.124;2023-04-29T04:37:04;96.72;;;41.15;;
46701;SDS011;33449;50.712;7.124;2023-04-29T04:42:02;72.53;;;34.75;;
46701;SDS011;33449;50.712;7.124;2023-04-29T04:44:32;103.22;;;44.10;;
46701;SDS011;33449;50.712;7.124;2023-04-29T04:47:02;113.15;;;46.15;;
46701;SDS011;33449;50.712;7.124;2023-04-29T04:49:35;126.00;;;49.58;;
46701;SDS011;33449;50.712;7.124;2023-04-29T04:52:04;113.32;;;45.00;;
46701;SDS011;33449;50.712;7.124;2023-04-29T04:54:36;114.00;;;49.20;;
46701;SDS011;33449;50.712;7.124;2023-04-29T04:57:04;126.63;;;48.75;;
46701;SDS011;33449;50.712;7.124;2023-04-29T04:59:32;125.88;;;52.10;;
46701;SDS011;33449;50.712;7.124;2023-04-29T05:01:59;138.93;;;52.25;;
46701;SDS011;33449;50.712;7.124;2023-04-29T05:04:27;136.93;;;53.85;;
46701;SDS011;33449;50.712;7.124;2023-04-29T05:06:54;127.07;;;51.35;;
46701;SDS011;33449;50.712;7.124;2023-04-29T05:09:21;127.72;;;50.80;;
46701;SDS011;33449;50.712;7.124;2023-04-29T05:11:49;153.05;;;52.78;;
46701;SDS011;33449;50.712;7.124;2023-04-29T05:14:16;144.10;;;57.78;;
46701;SDS011;33449;50.712;7.124;2023-04-29T05:16:44;156.80;;;59.90;;
46701;SDS011;33449;50.712;7.124;2023-04-29T05:19:12;160.25;;;55.60;;
46701;SDS011;33449;50.712;7.124;2023-04-29T05:21:39;134.35;;;43.63;;
46701;SDS011;33449;50.712;7.124;2023-04-29T05:24:06;126.55;;;47.80;;
46701;SDS011;33449;50.712;7.124;2023-04-29T05:26:36;130.40;;;47.57;;
46701;SDS011;33449;50.712;7.124;2023-04-29T05:29:04;121.55;;;46.67;;
46701;SDS011;33449;50.712;7.124;2023-04-29T05:31:31;123.88;;;46.20;;
46701;SDS011;33449;50.712;7.124;2023-04-29T05:33:58;117.65;;;41.85;;
46701;SDS011;33449;50.712;7.124;2023-04-29T05:36:25;123.20;;;42.35;;
46701;SDS011;33449;50.712;7.124;2023-04-29T05:38:55;103.75;;;38.25;;
46701;SDS011;33449;50.712;7.124;2023-04-29T05:41:22;109.15;;;40.50;;
46701;SDS011;33449;50.712;7.124;2023-04-29T05:43:54;130.30;;;41.65;;
46701;SDS011;33449;50.712;7.124;2023-04-29T05:46:21;103.57;;;39.72;;
46701;SDS011;33449;50.712;7.124;2023-04-29T05:48:48;108.10;;;39.35;;
46701;SDS011;33449;50.712;7.124;2023-04-29T05:51:16;112.22;;;42.25;;
46701;SDS011;33449;50.712;7.124;2023-04-29T05:53:46;110.10;;;42.00;;
46701;SDS011;33449;50.712;7.124;2023-04-29T05:56:13;109.17;;;41.13;;
46701;SDS011;33449;50.712;7.124;2023-04-29T05:58:41;107.43;;;39.92;;
46701;SDS011;33449;50.712;7.124;2023-04-29T06:01:09;102.82;;;41.88;;
46701;SDS011;33449;50.712;7.124;2023-04-29T06:03:37;102.13;;;38.55;;
46701;SDS011;33449;50.712;7.124;2023-04-29T06:06:13;103.90;;;38.42;;
46701;SDS011;33449;50.712;7.124;2023-04-29T06:08:42;113.65;;;41.13;;
46701;SDS011;33449;50.712;7.124;2023-04-29T06:11:10;110.03;;;40.38;;
46701;SDS011;33449;50.712;7.124;2023-04-29T06:13:37;91.90;;;38.45;;
46701;SDS011;33449;50.712;7.124;2023-04-29T06:16:04;83.63;;;31.48;;
46701;SDS011;33449;50.712;7.124;2023-04-29T06:18:34;84.90;;;34.97;;
46701;SDS011;33449;50.712;7.124;2023-04-29T06:21:03;89.20;;;34.35;;
46701;SDS011;33449;50.712;7.124;2023-04-29T06:23:31;92.57;;;39.15;;
46701;SDS011;33449;50.712;7.124;2023-04-29T06:26:02;96.75;;;36.42;;
46701;SDS011;33449;50.712;7.124;2023-04-29T06:28:30;85.60;;;37.20;;
46701;SDS011;33449;50.712;7.124;2023-04-29T06:30:57;94.07;;;34.22;;
46701;SDS011;33449;50.712;7.124;2023-04-29T06:33:26;83.47;;;34.03;;
46701;SDS011;33449;50.712;7.124;2023-04-29T06:35:55;87.95;;;36.63;;
46701;SDS011;33449;50.712;7.124;2023-04-29T06:38:24;85.07;;;36.03;;
46701;SDS011;33449;50.712;7.124;2023-04-29T06:40:51;92.65;;;37.00;;
46701;SDS011;33449;50.712;7.124;2023-04-29T06:45:50;84.65;;;34.42;;
46701;SDS011;33449;50.712;7.124;2023-04-29T06:51:03;81.72;;;32.25;;
46701;SDS011;33449;50.712;7.124;2023-04-29T06:53:35;69.10;;;31.58;;
46701;SDS011;33449;50.712;7.124;2023-04-29T06:56:02;68.10;;;29.73;;
46701;SDS011;33449;50.712;7.124;2023-04-29T06:58:34;67.80;;;31.25;;
46701;SDS011;33449;50.712;7.124;2023-04-29T07:01:02;68.90;;;30.20;;
46701;SDS011;33449;50.712;7.124;2023-04-29T07:03:35;60.83;;;29.55;;
46701;SDS011;33449;50.712;7.124;2023-04-29T07:06:03;56.85;;;27.70;;
46701;SDS011;33449;50.712;7.124;2023-04-29T07:08:31;54.47;;;23.75;;
46701;SDS011;33449;50.712;7.124;2023-04-29T07:10:58;49.42;;;24.50;;
46701;SDS011;33449;50.712;7.124;2023-04-29T07:13:28;58.97;;;26.93;;
46701;SDS011;33449;50.712;7.124;2023-04-29T07:15:56;50.63;;;23.95;;
46701;SDS011;33449;50.712;7.124;2023-04-29T07:18:23;50.65;;;24.48;;
46701;SDS011;33449;50.712;7.124;2023-04-29T07:20:51;46.25;;;23.08;;
46701;SDS011;33449;50.712;7.124;2023-04-29T07:23:21;52.78;;;24.13;;
46701;SDS011;33449;50.712;7.124;2023-04-29T07:25:48;47.10;;;23.33;;
46701;SDS011;33449;50.712;7.124;2023-04-29T07:28:15;43.35;;;22.30;;
46701;SDS011;33449;50.712;7.124;2023-04-29T07:30:43;51.22;;;22.88;;
46701;SDS011;33449;50.712;7.124;2023-04-29T07:33:13;39.08;;;21.10;;
46701;SDS011;33449;50.712;7.124;2023-04-29T07:35:40;43.90;;;22.00;;
46701;SDS011;33449;50.712;7.124;2023-04-29T07:38:09;37.55;;;20.58;;
46701;SDS011;33449;50.712;7.124;2023-04-29T07:40:42;38.67;;;20.65;;
46701;SDS011;33449;50.712;7.124;2023-04-29T07:43:10;38.78;;;20.13;;
46701;SDS011;33449;50.712;7.124;2023-04-29T07:45:37;41.55;;;22.88;;
46701;SDS011;33449;50.712;7.124;2023-04-29T07:48:07;42.47;;;20.60;;
46701;SDS011;33449;50.712;7.124;2023-04-29T07:50:34;38.55;;;21.17;;
46701;SDS011;33449;50.712;7.124;2023-04-29T07:53:02;42.17;;;22.55;;
46701;SDS011;33449;50.712;7.124;2023-04-29T07:55:32;39.60;;;21.65;;
46701;SDS011;33449;50.712;7.124;2023-04-29T07:57:59;41.28;;;21.83;;
46701;SDS011;33449;50.712;7.124;2023-04-29T08:00:28;37.28;;;20.05;;
46701;SDS011;33449;50.712;7.124;2023-04-29T08:02:57;38.65;;;22.58;;
46701;SDS011;33449;50.712;7.124;2023-04-29T08:05:27;40.25;;;21.02;;
46701;SDS011;33449;50.712;7.124;2023-04-29T08:07:56;37.08;;;20.98;;
46701;SDS011;33449;50.712;7.124;2023-04-29T08:10:25;45.27;;;21.03;;
46701;SDS011;33449;50.712;7.124;2023-04-29T08:12:53;44.17;;;21.85;;
46701;SDS011;33449;50.712;7.124;2023-04-29T08:15:24;40.15;;;19.38;;
46701;SDS011;33449;50.712;7.124;2023-04-29T08:17:53;40.83;;;18.50;;
46701;SDS011;33449;50.712;7.124;2023-04-29T08:20:21;34.50;;;18.80;;
46701;SDS011;33449;50.712;7.124;2023-04-29T08:22:48;36.97;;;21.27;;
46701;SDS011;33449;50.712;7.124;2023-04-29T08:25:15;38.90;;;20.60;;
46701;SDS011;33449;50.712;7.124;2023-04-29T08:27:47;34.65;;;19.52;;
46701;SDS011;33449;50.712;7.124;2023-04-29T08:30:17;35.42;;;18.27;;
46701;SDS011;33449;50.712;7.124;2023-04-29T08:32:44;40.92;;;19.42;;
46701;SDS011;33449;50.712;7.124;2023-04-29T08:35:14;28.73;;;15.70;;
46701;SDS011;33449;50.712;7.124;2023-04-29T08:37:41;31.98;;;17.77;;
46701;SDS011;33449;50.712;7.124;2023-04-29T08:40:08;32.88;;;17.17;;
46701;SDS011;33449;50.712;7.124;2023-04-29T08:42:39;29.17;;;16.35;;
46701;SDS011;33449;50.712;7.124;2023-04-29T08:45:06;32.13;;;17.63;;
46701;SDS011;33449;50.712;7.124;2023-04-29T08:47:33;27.42;;;16.80;;
46701;SDS011;33449;50.712;7.124;2023-04-29T08:50:04;30.88;;;18.27;;
46701;SDS011;33449;50.712;7.124;2023-04-29T08:52:31;26.83;;;15.80;;
46701;SDS011;33449;50.712;7.124;2023-04-29T08:54:59;30.08;;;15.77;;
46701;SDS011;33449;50.712;7.124;2023-04-29T08:57:33;26.27;;;15.77;;
46701;SDS011;33449;50.712;7.124;2023-04-29T09:00:08;29.17;;;16.98;;
46701;SDS011;33449;50.712;7.124;2023-04-29T09:02:49;28.83;;;14.77;;
46701;SDS011;33449;50.712;7.124;2023-04-29T09:05:17;27.13;;;14.77;;
46701;SDS011;33449;50.712;7.124;2023-04-29T09:07:45;31.30;;;16.83;;
46701;SDS011;33449;50.712;7.124;2023-04-29T09:10:12;25.95;;;15.27;;
46701;SDS011;33449;50.712;7.124;2023-04-29T09:12:40;29.40;;;16.55;;
46701;SDS011;33449;50.712;7.124;2023-04-29T09:15:11;26.98;;;14.85;;
46701;SDS011;33449;50.712;7.124;2023-04-29T09:17:45;27.67;;;14.43;;
46701;SDS011;33449;50.712;7.124;2023-04-29T09:22:47;29.33;;;16.05;;
46701;SDS011;33449;50.712;7.124;2023-04-29T09:25:19;28.50;;;15.23;;
46701;SDS011;33449;50.712;7.124;2023-04-29T09:27:46;25.25;;;14.80;;
46701;SDS011;33449;50.712;7.124;2023-04-29T09:30:19;24.17;;;14.45;;
46701;SDS011;33449;50.712;7.124;2023-04-29T09:33:08;27.50;;;15.30;;
46701;SDS011;33449;50.712;7.124;2023-04-29T09:35:35;26.73;;;14.95;;
46701;SDS011;33449;50.712;7.124;2023-04-29T09:38:09;27.02;;;16.08;;
46701;SDS011;33449;50.712;7.124;2023-04-29T09:40:37;25.08;;;14.70;;
46701;SDS011;33449;50.712;7.124;2023-04-29T09:43:26;26.13;;;13.98;;
46701;SDS011;33449;50.712;7.124;2023-04-29T09:45:54;34.33;;;15.88;;
46701;SDS011;33449;50.712;7.124;2023-04-29T09:48:21;27.58;;;13.70;;
46701;SDS011;33449;50.712;7.124;2023-04-29T09:50:58;24.58;;;12.68;;
46701;SDS011;33449;50.712;7.124;2023-04-29T09:53:30;24.35;;;12.45;;
46701;SDS011;33449;50.712;7.124;2023-04-29T09:58:28;30.40;;;13.02;;
46701;SDS011;33449;50.712;7.124;2023-04-29T10:00:59;23.17;;;13.13;;
46701;SDS011;33449;50.712;7.124;2023-04-29T10:03:28;24.20;;;13.43;;
46701;SDS011;33449;50.712;7.124;2023-04-29T10:06:00;23.88;;;14.02;;
46701;SDS011;33449;50.712;7.124;2023-04-29T10:08:30;28.10;;;15.05;;
46701;SDS011;33449;50.712;7.124;2023-04-29T10:11:03;23.35;;;13.95;;
46701;SDS011;33449;50.712;7.124;2023-04-29T10:13:34;24.33;;;13.45;;
46701;SDS011;33449;50.712;7.124;2023-04-29T10:16:20;25.83;;;14.27;;
46701;SDS011;33449;50.712;7.124;2023-04-29T10:18:52;23.60;;;13.85;;
46701;SDS011;33449;50.712;7.124;2023-04-29T10:21:26;24.38;;;14.55;;
46701;SDS011;33449;50.712;7.124;2023-04-29T10:23:54;29.23;;;15.35;;
46701;SDS011;33449;50.712;7.124;2023-04-29T10:26:25;34.85;;;17.00;;
46701;SDS011;33449;50.712;7.124;2023-04-29T10:28:53;31.25;;;13.95;;
46701;SDS011;33449;50.712;7.124;2023-04-29T10:31:21;28.48;;;15.75;;
46701;SDS011;33449;50.712;7.124;2023-04-29T10:33:54;29.70;;;15.48;;
46701;SDS011;33449;50.712;7.124;2023-04-29T10:36:22;32.13;;;15.57;;
46701;SDS011;33449;50.712;7.124;2023-04-29T10:38:58;30.40;;;15.65;;
46701;SDS011;33449;50.712;7.124;2023-04-29T10:44:03;29.92;;;16.17;;
46701;SDS011;33449;50.712;7.124;2023-04-29T10:46:38;36.45;;;16.98;;
46701;SDS011;33449;50.712;7.124;2023-04-29T10:49:07;34.15;;;18.92;;
46701;SDS011;33449;50.712;7.124;2023-04-29T10:51:43;33.40;;;18.73;;
46701;SDS011;33449;50.712;7.124;2023-04-29T10:54:14;37.00;;;21.52;;
46701;SDS011;33449;50.712;7.124;2023-04-29T10:56:53;37.05;;;22.10;;
46701;SDS011;33449;50.712;7.124;2023-04-29T10:59:41;40.60;;;22.75;;
46701;SDS011;33449;50.712;7.124;2023-04-29T11:02:09;40.50;;;20.38;;
46701;SDS011;33449;50.712;7.124;2023-04-29T11:05:05;40.92;;;20.60;;
46701;SDS011;33449;50.712;7.124;2023-04-29T11:07:28;39.72;;;22.52;;
46701;SDS011;33449;50.712;7.124;2023-04-29T11:09:55;36.10;;;21.23;;
46701;SDS011;33449;50.712;7.124;2023-04-29T11:12:22;42.13;;;22.15;;
46701;SDS011;33449;50.712;7.124;2023-04-29T11:14:50;33.22;;;19.15;;
46701;SDS011;33449;50.712;7.124;2023-04-29T11:17:18;33.97;;;20.73;;
46701;SDS011;33449;50.712;7.124;2023-04-29T11:19:46;43.17;;;22.70;;
46701;SDS011;33449;50.712;7.124;2023-04-29T11:24:56;43.47;;;23.23;;
46701;SDS011;33449;50.712;7.124;2023-04-29T11:27:27;45.72;;;22.95;;
46701;SDS011;33449;50.712;7.124;2023-04-29T11:29:56;44.25;;;23.20;;
46701;SDS011;33449;50.712;7.124;2023-04-29T11:32:28;42.75;;;23.83;;
46701;SDS011;33449;50.712;7.124;2023-04-29T11:35:08;46.03;;;25.65;;
46701;SDS011;33449;50.712;7.124;2023-04-29T11:37:38;41.85;;;22.75;;
46701;SDS011;33449;50.712;7.124;2023-04-29T11:40:06;46.25;;;25.23;;
46701;SDS011;33449;50.712;7.124;2023-04-29T11:42:34;47.92;;;25.45;;
46701;SDS011;33449;50.712;7.124;2023-04-29T11:45:05;51.28;;;26.40;;
46701;SDS011;33449;50.712;7.124;2023-04-29T11:47:32;53.80;;;27.02;;
46701;SDS011;33449;50.712;7.124;2023-04-29T11:50:03;52.67;;;28.27;;
46701;SDS011;33449;50.712;7.124;2023-04-29T11:52:31;52.42;;;29.30;;
46701;SDS011;33449;50.712;7.124;2023-04-29T11:54:58;54.25;;;31.00;;
46701;SDS011;33449;50.712;7.124;2023-04-29T11:57:26;56.30;;;28.85;;
46701;SDS011;33449;50.712;7.124;2023-04-29T11:59:56;55.10;;;31.05;;
46701;SDS011;33449;50.712;7.124;2023-04-29T12:02:30;54.17;;;27.85;;
46701;SDS011;33449;50.712;7.124;2023-04-29T12:04:58;51.17;;;28.33;;
46701;SDS011;33449;50.712;7.124;2023-04-29T12:07:27;54.10;;;28.83;;
46701;SDS011;33449;50.712;7.124;2023-04-29T12:09:57;47.78;;;27.05;;
46701;SDS011;33449;50.712;7.124;2023-04-29T12:12:25;42.03;;;24.15;;
46701;SDS011;33449;50.712;7.124;2023-04-29T12:14:53;39.90;;;24.33;;
46701;SDS011;33449;50.712;7.124;2023-04-29T12:17:21;43.83;;;23.17;;
46701;SDS011;33449;50.712;7.124;2023-04-29T12:19:48;43.40;;;23.25;;
46701;SDS011;33449;50.712;7.124;2023-04-29T12:22:16;39.50;;;22.00;;
46701;SDS011;33449;50.712;7.124;2023-04-29T12:24:45;36.75;;;22.33;;
46701;SDS011;33449;50.712;7.124;2023-04-29T12:27:12;38.28;;;22.63;;
46701;SDS011;33449;50.712;7.124;2023-04-29T12:29:40;41.97;;;21.02;;
46701;SDS011;33449;50.712;7.124;2023-04-29T12:32:11;40.28;;;22.23;;
46701;SDS011;33449;50.712;7.124;2023-04-29T12:34:38;40.72;;;23.17;;
46701;SDS011;33449;50.712;7.124;2023-04-29T12:37:08;54.55;;;28.45;;
46701;SDS011;33449;50.712;7.124;2023-04-29T12:39:38;66.75;;;34.30;;
46701;SDS011;33449;50.712;7.124;2023-04-29T12:42:05;66.30;;;37.03;;
46701;SDS011;33449;50.712;7.124;2023-04-29T12:44:35;74.95;;;38.38;;
46701;SDS011;33449;50.712;7.124;2023-04-29T12:47:06;82.90;;;41.22;;
46701;SDS011;33449;50.712;7.124;2023-04-29T12:49:41;85.65;;;43.05;;
46701;SDS011;33449;50.712;7.124;2023-04-29T12:52:08;90.30;;;44.03;;
46701;SDS011;33449;50.712;7.124;2023-04-29T12:54:36;88.82;;;46.17;;
46701;SDS011;33449;50.712;7.124;2023-04-29T12:57:09;93.20;;;47.20;;
46701;SDS011;33449;50.712;7.124;2023-04-29T12:59:37;105.18;;;51.97;;
46701;SDS011;33449;50.712;7.124;2023-04-29T13:02:06;103.72;;;49.80;;
46701;SDS011;33449;50.712;7.124;2023-04-29T13:04:35;104.05;;;48.75;;
46701;SDS011;33449;50.712;7.124;2023-04-29T13:07:04;101.63;;;51.70;;
46701;SDS011;33449;50.712;7.124;2023-04-29T13:09:32;108.65;;;52.45;;
46701;SDS011;33449;50.712;7.124;2023-04-29T13:12:00;100.53;;;51.80;;
46701;SDS011;33449;50.712;7.124;2023-04-29T13:14:28;107.13;;;54.05;;
46701;SDS011;33449;50.712;7.124;2023-04-29T13:16:55;110.93;;;54.60;;
46701;SDS011;33449;50.712;7.124;2023-04-29T13:19:22;107.85;;;56.78;;
46701;SDS011;33449;50.712;7.124;2023-04-29T13:22:12;102.32;;;50.95;;
46701;SDS011;33449;50.712;7.124;2023-04-29T13:24:39;107.30;;;51.47;;
46701;SDS011;33449;50.712;7.124;2023-04-29T13:27:07;110.53;;;55.85;;
46701;SDS011;33449;50.712;7.124;2023-04-29T13:29:37;102.40;;;49.30;;
46701;SDS011;33449;50.712;7.124;2023-04-29T13:32:05;102.03;;;53.35;;
46701;SDS011;33449;50.712;7.124;2023-04-29T13:34:33;96.40;;;52.28;;
46701;SDS011;33449;50.712;7.124;2023-04-29T13:37:01;100.30;;;52.20;;
46701;SDS011;33449;50.712;7.124;2023-04-29T13:39:31;87.55;;;46.22;;
46701;SDS011;33449;50.712;7.124;2023-04-29T13:42:03;87.57;;;43.75;;
46701;SDS011;33449;50.712;7.124;2023-04-29T13:47:16;78.78;;;38.63;;
46701;SDS011;33449;50.712;7.124;2023-04-29T13:49:50;72.95;;;36.83;;
46701;SDS011;33449;50.712;7.124;2023-04-29T13:52:21;76.43;;;38.60;;
46701;SDS011;33449;50.712;7.124;2023-04-29T13:54:53;76.78;;;37.95;;
46701;SDS011;33449;50.712;7.124;2023-04-29T13:57:41;75.85;;;38.42;;
46701;SDS011;33449;50.712;7.124;2023-04-29T14:00:11;72.28;;;38.08;;
46701;SDS011;33449;50.712;7.124;2023-04-29T14:02:58;71.75;;;37.97;;
46701;SDS011;33449;50.712;7.124;2023-04-29T14:05:31;67.43;;;39.30;;
46701;SDS011;33449;50.712;7.124;2023-04-29T14:08:02;70.05;;;37.22;;
46701;SDS011;33449;50.712;7.124;2023-04-29T14:10:32;70.85;;;37.80;;
46701;SDS011;33449;50.712;7.124;2023-04-29T14:13:00;70.95;;;35.70;;
46701;SDS011;33449;50.712;7.124;2023-04-29T14:15:28;73.15;;;39.30;;
46701;SDS011;33449;50.712;7.124;2023-04-29T14:17:55;74.38;;;40.55;;
46701;SDS011;33449;50.712;7.124;2023-04-29T14:20:25;78.78;;;42.00;;
46701;SDS011;33449;50.712;7.124;2023-04-29T14:22:53;83.95;;;41.38;;
46701;SDS011;33449;50.712;7.124;2023-04-29T14:25:20;80.05;;;42.13;;
46701;SDS011;33449;50.712;7.124;2023-04-29T14:27:50;75.63;;;39.13;;
46701;SDS011;33449;50.712;7.124;2023-04-29T14:30:17;74.32;;;39.60;;
46701;SDS011;33449;50.712;7.124;2023-04-29T14:32:44;70.70;;;39.20;;
46701;SDS011;33449;50.712;7.124;2023-04-29T14:35:12;76.53;;;41.85;;
46701;SDS011;33449;50.712;7.124;2023-04-29T14:37:40;76.53;;;40.90;;
46701;SDS011;33449;50.712;7.124;2023-04-29T14:40:07;70.15;;;39.90;;
46701;SDS011;33449;50.712;7.124;2023-04-29T14:45:10;63.05;;;32.90;;
46701;SDS011;33449;50.712;7.124;2023-04-29T14:47:37;57.92;;;32.75;;
46701;SDS011;33449;50.712;7.124;2023-04-29T14:50:05;60.72;;;32.90;;
46701;SDS011;33449;50.712;7.124;2023-04-29T14:52:32;58.00;;;31.58;;
46701;SDS011;33449;50.712;7.124;2023-04-29T14:55:00;68.20;;;35.72;;
46701;SDS011;33449;50.712;7.124;2023-04-29T14:57:27;64.93;;;36.42;;
46701;SDS011;33449;50.712;7.124;2023-04-29T14:59:55;63.35;;;35.92;;
46701;SDS011;33449;50.712;7.124;2023-04-29T15:02:23;59.63;;;33.30;;
46701;SDS011;33449;50.712;7.124;2023-04-29T15:04:50;62.95;;;34.75;;